Mattoon, Kentucky
Current Conditions -  °F | °C
As of 5:15 PM on Tuesday 25 Nov 2014 (Local Time) from K5M9 Reporting Station
Clear Clear  
Wind Chill: 36°   Ceiling: Unl
Heat Index: 36°   Visibility: 10mi
Dew Point: 27°   Wind: 3mph
Humidity: 70%   Direction: 30°NNE
Pressure: 30.16"   Gusts: NA
Location:  37.3359°N, 88.1049°W
Report Text: K5M9 252315Z AUTO 03003KT 10SM CLR 02/M03 A3016 RMK AO2 T00221027
Loading
Personal Weather Stations






























Interactive Weather Map New forecast layout! Learn more

10-Day Weather Forecast

Advertisements
Track Severe Weather on mobile